Greenbrier, AR (72058)

7:46 AM CST on February 13, 2016 (GMT -0600)
Tall Oaks | | Change Station
CLOSE
Current Station
Personal Weather Station
Location: Greenbrier, AR
Elevation: 361 ft
Nearby Weather Stations

Elev 361 ft 35.23 °N, 92.40 °W | Updated 1 minute ago

Clear
Clear
31.9 °F
Feels Like 32 °F
N
1.0
Wind Variable Wind from ENE
Gusts 4.0 mph

Today
High -- | Low -- °F
--% Chance of Precip.
Yesterday
High -- | Low -- °F
Precip. -- in
Pressure 30.55 in
Visibility 10.0 miles
Clouds Clear
Windchill 32 °F
Dew Point 14 °F
Humidity 48%
Rainfall 0.00 in
Snow Depth Not available.
6:58 AM 5:49 PM
Waxing Crescent, 31% visible
METAR KLRF 131258Z AUTO 05008KT 10SM CLR 00/M11 A3053 RMK AO2 VIS 1 3/4 RWY07 SLP343 T10011111
Pressure 30.55 in
Visibility 10.0 miles
Clouds Clear
Windchill 32 °F
Dew Point 14 °F
Humidity 48%
Rainfall 0.00 in
Snow Depth Not available.
6:58 AM 5:49 PM
Waxing Crescent, 31% visible
METAR KLRF 131258Z AUTO 05008KT 10SM CLR 00/M11 A3053 RMK AO2 VIS 1 3/4 RWY07 SLP343 T10011111

10-Day Weather Forecast

Almanac

Astronomy

Feb. 13, 2016 Rise Set
Actual Time
Civil Twilight
Nautical Twilight
Astronomical Twilight
Moon
Length of Visible Light
Length of Day
Tomorrow will be .
, % of the Moon is Illuminated

Today's Extremes

State Highs State Lows

Community

WunderPhotos

Upload Photos

1,892,547 photos uploaded!

WunderBlog® & News

Nearby

Air Quality

  Air Quality AQ Index Pollutant
Not available.

Snow Depth

Station Depth Elevation

Earthquake Activity

City Distance Mag. Time & Date
Minimum magnitude displayed is 2.5.

Coastal Water Temperatures

Place Temperature

Stations

Nearby Weather Stations

Station Location Temp. Windchill Dew Point Humidity Wind Precip. Elev Updated Type
                   

Watches & Warnings

There are currently no watches in effect.